Estación Meteorológica Peña el Pijo (Robertgarden) [ 02/03/23 03:59:42 CET ]

Fecha Hora Presion(HPa) Temp (°C) Humedad % Rocio (°C) Viento ( m/s) Direccion Lluvia 1Hora(mm) Lluvia 24H(mm) LLuvia Total(mm)
2010-Apr-07 01:01:14 1009.400 7.8 78 4.2         105.67
2010-Apr-07 02:01:16 1009.200 7.6 80 4.4         105.67
2010-Apr-07 03:03:17 1008.700 8.0 78 4.4         105.67
2010-Apr-07 04:01:13 1008.300 7.8 78 4.2         105.67
2010-Apr-07 05:01:15 1008.700 7.9 78 4.3         105.67
2010-Apr-07 06:01:14 1008.400 7.3 79 3.9         105.67
2010-Apr-07 07:01:13 1008.500 5.6 82 2.7         105.67
2010-Apr-07 08:01:10 1008.800 4.4 84 1.9         105.67
2010-Apr-07 09:01:14 1009.000 9.9 75 5.7         105.67
2010-Apr-07 10:01:14 1009.300 14.1 54 4.9         105.67
2010-Apr-07 11:01:11 1009.600 15.9 45 3.9         105.67
2010-Apr-07 12:01:14 1009.400 18.1 33 1.5         105.67
2010-Apr-07 13:01:12 1009.200 19.4 30 1.4 4.7 SSE     105.67
2010-Apr-07 14:01:13 1009.300 20.6 27 0.8         105.67
2010-Apr-07 15:01:17 1009.300 20.3 30 2.2         105.67
2010-Apr-07 16:01:13 1009.200 20.2 30 2.1 2.7 WNW     105.67
2010-Apr-07 17:01:14 1009.500 19.2 31 1.7         105.67
2010-Apr-07 18:01:13 1009.600 17.6 30 -0.2         105.67
2010-Apr-07 19:01:13 1010.100 17.6 30 -0.2         105.67
2010-Apr-07 20:01:12 1010.400 14.3 36 -0.7         105.67
2010-Apr-07 21:01:13 1011.300 11.9 38 -2.0         105.67
2010-Apr-07 22:01:15 1012.400 10.7 46 -0.5         105.67
2010-Apr-07 23:01:14 1013.800 9.8 52 0.4         105.67

Temperatura Máxima:20°    Temperatura Mínima:
Presión Máxima:1013.800 Hpa    Presión Mínima:1008.300 Hpa


Volver